createdAt,value
2023-05-10T00:00:53.384Z,12.20
2023-05-10T00:03:23.656Z,10.87
2023-05-10T00:05:53.705Z,12.60
2023-05-10T00:08:23.615Z,11.83
2023-05-10T00:10:53.646Z,13.10
2023-05-10T00:13:26.450Z,12.57
2023-05-10T00:15:59.289Z,13.37
2023-05-10T00:18:29.175Z,11.20
2023-05-10T00:20:59.020Z,11.07
2023-05-10T00:23:28.987Z,11.10
2023-05-10T00:25:58.914Z,9.80
2023-05-10T00:28:34.496Z,10.90
2023-05-10T00:31:04.426Z,9.97
2023-05-10T00:33:34.516Z,9.57
2023-05-10T00:36:04.636Z,9.93
2023-05-10T00:38:34.510Z,10.30
2023-05-10T00:41:04.679Z,10.63
2023-05-10T00:43:37.186Z,11.17
2023-05-10T00:46:07.692Z,10.77
2023-05-10T00:48:38.390Z,15.10
2023-05-10T00:51:08.375Z,10.67
2023-05-10T00:53:39.414Z,11.77
2023-05-10T00:56:12.020Z,14.10
2023-05-10T00:58:44.550Z,13.43
2023-05-10T01:01:15.505Z,13.23
2023-05-10T01:03:45.753Z,15.07
2023-05-10T01:06:15.693Z,14.13
2023-05-10T01:08:45.654Z,13.00
2023-05-10T01:11:15.761Z,14.63
2023-05-10T01:13:54.670Z,13.13
2023-05-10T01:16:24.670Z,14.00
2023-05-10T01:18:56.470Z,16.37
2023-05-10T01:21:36.744Z,12.70
2023-05-10T01:24:38.999Z,15.07
2023-05-10T01:27:50.125Z,16.10
2023-05-10T01:30:50.378Z,14.63
2023-05-10T01:33:27.395Z,13.13
2023-05-10T01:36:07.982Z,15.00
2023-05-10T01:38:47.440Z,15.13
2023-05-10T01:41:22.586Z,17.13
2023-05-10T01:43:59.405Z,13.80
2023-05-10T01:46:38.962Z,14.43
2023-05-10T01:49:15.886Z,12.90
2023-05-10T01:51:52.534Z,14.70
2023-05-10T01:54:24.268Z,13.63
2023-05-10T01:57:04.982Z,13.90
2023-05-10T01:59:44.472Z,14.27
2023-05-10T02:02:16.141Z,12.37
2023-05-10T02:04:50.328Z,13.63
2023-05-10T02:07:20.624Z,12.80
2023-05-10T02:09:53.024Z,15.30
2023-05-10T02:12:24.395Z,15.53
2023-05-10T02:14:56.699Z,14.53
2023-05-10T02:17:28.546Z,12.90
2023-05-10T02:20:03.079Z,13.90
2023-05-10T02:22:33.512Z,13.57
2023-05-10T02:25:05.354Z,14.57
2023-05-10T02:27:35.957Z,14.60
2023-05-10T02:30:06.471Z,18.77
2023-05-10T02:32:38.336Z,16.87
2023-05-10T02:35:13.627Z,22.97
2023-05-10T02:37:44.244Z,16.17
2023-05-10T02:40:15.832Z,18.13
2023-05-10T02:42:47.824Z,17.13
2023-05-10T02:45:22.207Z,18.90
2023-05-10T02:47:52.430Z,18.10
2023-05-10T02:50:26.281Z,18.23
2023-05-10T02:53:00.321Z,17.97
2023-05-10T02:55:35.756Z,19.10
2023-05-10T02:58:07.938Z,22.13
2023-05-10T03:00:38.024Z,23.47
2023-05-10T03:03:07.980Z,18.83
2023-05-10T03:05:40.944Z,17.83
2023-05-10T03:08:11.348Z,20.40
2023-05-10T03:11:04.006Z,26.73
2023-05-10T03:13:40.285Z,20.83
2023-05-10T03:16:14.109Z,17.23
2023-05-10T03:18:48.490Z,18.27
2023-05-10T03:21:23.082Z,17.80
2023-05-10T03:23:59.481Z,20.33
2023-05-10T03:26:31.328Z,21.20
2023-05-10T03:29:02.628Z,19.50
2023-05-10T03:31:32.713Z,19.97
2023-05-10T03:34:02.765Z,21.10
2023-05-10T03:36:35.329Z,19.63
2023-05-10T03:39:06.215Z,24.63
2023-05-10T03:41:36.166Z,20.83
2023-05-10T03:44:06.036Z,19.13
2023-05-10T03:46:35.924Z,23.37
2023-05-10T03:49:06.247Z,23.63
2023-05-10T03:51:38.821Z,19.43
2023-05-10T03:54:09.113Z,21.60
2023-05-10T03:56:39.104Z,23.90
2023-05-10T03:59:10.029Z,24.07
2023-05-10T04:01:39.989Z,25.13
2023-05-10T04:04:09.979Z,27.80
2023-05-10T04:06:42.649Z,26.10
2023-05-10T04:09:12.710Z,26.30
2023-05-10T04:11:43.069Z,28.23
2023-05-10T04:14:12.967Z,24.57
2023-05-10T04:16:42.952Z,26.37
2023-05-10T04:19:12.806Z,31.73
2023-05-10T04:21:45.301Z,26.37
2023-05-10T04:24:15.161Z,25.63
2023-05-10T04:26:45.037Z,31.67
2023-05-10T04:29:15.063Z,26.17
2023-05-10T04:31:44.977Z,28.70
2023-05-10T04:34:14.821Z,28.40
2023-05-10T04:36:47.321Z,29.83
2023-05-10T04:39:17.704Z,36.30
2023-05-10T04:41:47.689Z,35.43
2023-05-10T04:44:17.737Z,34.93
2023-05-10T04:46:47.621Z,34.57
2023-05-10T04:49:17.990Z,38.90
2023-05-10T04:51:50.544Z,33.40
2023-05-10T04:54:20.455Z,33.80
2023-05-10T04:56:50.506Z,35.47
2023-05-10T04:59:20.405Z,35.70
2023-05-10T05:01:50.378Z,32.03
2023-05-10T05:04:20.292Z,36.20
2023-05-10T05:06:53.986Z,37.80
2023-05-10T05:09:24.045Z,37.07
2023-05-10T05:11:53.922Z,37.47
2023-05-10T05:14:26.189Z,32.63
2023-05-10T05:16:57.076Z,32.80
2023-05-10T05:19:27.025Z,36.67
2023-05-10T05:21:59.573Z,42.87
2023-05-10T05:24:29.449Z,32.43
2023-05-10T05:26:59.286Z,35.33
2023-05-10T05:29:29.099Z,34.93
2023-05-10T05:31:59.039Z,37.67
2023-05-10T05:34:29.068Z,37.80
2023-05-10T05:37:01.563Z,35.87
2023-05-10T05:39:31.620Z,34.53
2023-05-10T05:42:01.487Z,34.50
2023-05-10T05:44:31.656Z,34.90
2023-05-10T05:47:01.541Z,38.83
2023-05-10T05:49:31.389Z,35.53
2023-05-10T05:52:06.193Z,37.20
2023-05-10T05:54:36.371Z,36.53
2023-05-10T05:57:06.470Z,38.57
2023-05-10T05:59:36.453Z,40.43
2023-05-10T06:02:06.322Z,37.07
2023-05-10T06:04:38.839Z,43.83
2023-05-10T06:07:11.675Z,48.53
2023-05-10T06:09:41.564Z,48.87
2023-05-10T06:12:12.849Z,46.73
2023-05-10T06:14:42.856Z,45.97
2023-05-10T06:17:12.717Z,47.50
2023-05-10T06:19:42.605Z,44.03
2023-05-10T06:22:15.060Z,45.50
2023-05-10T06:24:44.950Z,46.63
2023-05-10T06:27:14.840Z,43.00
2023-05-10T06:29:44.878Z,46.53
2023-05-10T06:32:14.828Z,41.30
2023-05-10T06:34:45.828Z,48.40
2023-05-10T06:37:18.253Z,49.07
2023-05-10T06:39:48.143Z,50.93
2023-05-10T06:42:18.269Z,45.57
2023-05-10T06:44:48.070Z,47.17
2023-05-10T06:47:21.280Z,49.57
2023-05-10T06:49:51.122Z,51.73
2023-05-10T06:52:24.531Z,53.40
2023-05-10T06:54:54.501Z,46.57
2023-05-10T06:57:31.848Z,48.73
2023-05-10T07:00:06.139Z,55.90
2023-05-10T07:02:36.279Z,46.17
2023-05-10T07:05:06.397Z,47.73
2023-05-10T07:07:38.977Z,52.23
2023-05-10T07:10:10.481Z,48.57
2023-05-10T07:12:42.749Z,47.63
2023-05-10T07:15:13.638Z,43.43
2023-05-10T07:17:45.660Z,46.40
2023-05-10T07:20:18.651Z,46.10
2023-05-10T07:22:51.336Z,49.70
2023-05-10T07:25:21.357Z,44.10
2023-05-10T07:27:52.224Z,42.43
2023-05-10T07:30:22.371Z,42.97
2023-05-10T07:32:52.429Z,43.90
2023-05-10T07:35:25.052Z,44.53
2023-05-10T07:37:57.546Z,44.17
2023-05-10T07:40:28.156Z,49.97
2023-05-10T07:42:58.120Z,37.90
2023-05-10T07:45:31.290Z,37.97
2023-05-10T07:48:01.716Z,42.50
2023-05-10T07:50:31.965Z,44.83
2023-05-10T07:53:04.586Z,42.63
2023-05-10T07:55:35.483Z,42.60
2023-05-10T07:58:05.762Z,42.27
2023-05-10T08:00:37.033Z,47.57
2023-05-10T08:03:07.136Z,48.03
2023-05-10T08:05:37.453Z,49.03
2023-05-10T08:08:11.979Z,44.10
2023-05-10T08:10:42.053Z,44.57
2023-05-10T08:13:11.956Z,36.00
2023-05-10T08:15:42.037Z,40.97
2023-05-10T08:18:12.050Z,40.87
2023-05-10T08:20:42.031Z,39.50
2023-05-10T08:23:16.710Z,41.83
2023-05-10T08:25:46.603Z,43.80
2023-05-10T08:28:16.450Z,37.30
2023-05-10T08:30:46.370Z,37.53
2023-05-10T08:33:16.540Z,41.13
2023-05-10T08:35:48.213Z,39.47
2023-05-10T08:38:21.944Z,38.93
2023-05-10T08:40:57.684Z,40.00
2023-05-10T08:43:31.140Z,38.43
2023-05-10T08:46:05.519Z,33.73
2023-05-10T08:48:41.403Z,35.77
2023-05-10T08:51:13.516Z,34.90
2023-05-10T08:53:46.400Z,33.10
2023-05-10T08:56:16.894Z,31.37
2023-05-10T08:58:47.218Z,32.78
2023-05-10T09:01:21.537Z,34.35
2023-05-10T09:03:52.486Z,30.20
2023-05-10T09:06:22.589Z,32.17
2023-05-10T09:08:56.386Z,36.53
2023-05-10T09:11:26.799Z,30.20
2023-05-10T09:13:57.402Z,30.53
2023-05-10T09:16:28.313Z,30.10
2023-05-10T09:18:58.265Z,31.15
2023-05-10T09:21:28.945Z,31.27
2023-05-10T09:24:06.691Z,30.77
2023-05-10T09:26:36.821Z,37.25
2023-05-10T09:29:09.735Z,32.85
2023-05-10T09:31:52.897Z,30.17
2023-05-10T09:34:24.438Z,25.25
2023-05-10T09:36:59.374Z,25.02
2023-05-10T09:39:41.169Z,26.00
2023-05-10T09:42:12.826Z,22.35
2023-05-10T09:44:44.580Z,25.00
2023-05-10T09:47:23.686Z,28.60
2023-05-10T09:49:54.278Z,25.23
2023-05-10T09:52:24.300Z,21.45
2023-05-10T09:54:59.538Z,24.30
2023-05-10T09:57:29.881Z,22.20
2023-05-10T09:59:59.816Z,26.80
2023-05-10T10:02:33.530Z,27.65
2023-05-10T10:05:05.413Z,25.02
2023-05-10T10:07:38.099Z,24.33
2023-05-10T10:10:14.153Z,29.35
2023-05-10T10:12:45.785Z,28.80
2023-05-10T10:15:16.911Z,26.23
2023-05-10T10:17:47.844Z,21.52
2023-05-10T10:20:18.690Z,23.15
2023-05-10T10:22:48.875Z,20.88
2023-05-10T10:25:24.401Z,21.83
2023-05-10T10:28:13.224Z,21.25
2023-05-10T10:30:46.505Z,25.77
2023-05-10T10:33:40.606Z,22.73
2023-05-10T10:36:11.734Z,24.02
2023-05-10T10:39:00.808Z,21.08
2023-05-10T10:41:45.630Z,24.83
2023-05-10T10:44:30.644Z,20.93
2023-05-10T10:47:09.870Z,25.27
2023-05-10T10:49:47.391Z,21.57
2023-05-10T10:52:27.992Z,22.88
2023-05-10T10:55:03.029Z,27.00
2023-05-10T10:57:38.368Z,23.60
2023-05-10T11:00:27.719Z,26.10
2023-05-10T11:03:00.517Z,24.17
2023-05-10T11:05:44.577Z,23.43
2023-05-10T11:08:20.199Z,24.50
2023-05-10T11:10:58.171Z,22.42
2023-05-10T11:13:35.273Z,22.13
2023-05-10T11:16:18.550Z,23.52
2023-05-10T11:19:07.040Z,19.80
2023-05-10T11:21:37.979Z,20.40
2023-05-10T11:24:17.987Z,23.02
2023-05-10T11:26:48.135Z,19.92
2023-05-10T11:29:21.213Z,18.00
2023-05-10T11:31:52.472Z,20.48
2023-05-10T11:34:31.546Z,21.75
2023-05-10T11:37:02.166Z,22.25
2023-05-10T11:39:33.239Z,17.83
2023-05-10T11:42:03.946Z,20.58
2023-05-10T11:44:37.433Z,21.38
2023-05-10T11:47:09.156Z,20.05
2023-05-10T11:49:39.124Z,17.52
2023-05-10T11:52:10.403Z,19.40
2023-05-10T11:54:40.436Z,17.90
2023-05-10T11:57:10.318Z,14.60
2023-05-10T11:59:43.922Z,13.15
2023-05-10T12:02:14.556Z,9.52
2023-05-10T12:04:45.597Z,10.95
2023-05-10T12:07:15.604Z,13.70
2023-05-10T12:09:47.409Z,13.00
2023-05-10T12:12:20.921Z,12.32
2023-05-10T12:14:55.817Z,11.57
2023-05-10T12:17:25.718Z,13.02
2023-05-10T12:19:55.965Z,11.73
2023-05-10T12:22:25.924Z,10.38
2023-05-10T12:24:55.938Z,15.27
2023-05-10T12:27:25.774Z,10.55
2023-05-10T12:29:58.790Z,10.65
2023-05-10T12:32:42.029Z,8.55
2023-05-10T12:35:12.631Z,10.38
2023-05-10T12:37:43.060Z,8.65
2023-05-10T12:40:15.335Z,14.70
2023-05-10T12:42:46.089Z,11.07
2023-05-10T12:45:18.644Z,9.38
2023-05-10T12:47:49.383Z,11.05
2023-05-10T12:50:19.336Z,9.00
2023-05-10T12:52:49.353Z,8.55
2023-05-10T12:55:19.306Z,10.00
2023-05-10T12:57:49.119Z,9.80
2023-05-10T13:00:22.646Z,10.77
2023-05-10T13:02:52.588Z,7.43
2023-05-10T13:05:22.722Z,6.95
2023-05-10T13:07:52.565Z,10.88
2023-05-10T13:10:23.770Z,17.55
2023-05-10T13:12:53.855Z,8.98
2023-05-10T13:15:26.705Z,9.48
2023-05-10T13:17:58.985Z,9.95
2023-05-10T13:20:29.551Z,10.13
2023-05-10T13:22:59.455Z,10.85
2023-05-10T13:25:29.308Z,9.25
2023-05-10T13:27:59.457Z,8.05
2023-05-10T13:30:32.776Z,10.35
2023-05-10T13:33:02.811Z,9.27
2023-05-10T13:35:32.942Z,8.70
2023-05-10T13:38:03.244Z,7.53
2023-05-10T13:40:33.184Z,6.93
2023-05-10T13:43:04.516Z,9.57
2023-05-10T13:45:37.218Z,7.60
2023-05-10T13:48:08.039Z,9.02
2023-05-10T13:50:38.098Z,8.00
2023-05-10T13:53:08.024Z,10.57
2023-05-10T13:55:38.006Z,8.60
2023-05-10T13:58:08.146Z,7.93
2023-05-10T14:00:40.896Z,7.28
2023-05-10T14:03:12.633Z,12.40
2023-05-10T14:05:46.162Z,11.15
2023-05-10T14:08:16.967Z,11.00
2023-05-10T14:10:46.868Z,10.88
2023-05-10T14:13:17.065Z,10.80
2023-05-10T14:15:49.637Z,11.38
2023-05-10T14:18:19.528Z,9.60
2023-05-10T14:20:49.405Z,9.02
2023-05-10T14:23:20.778Z,11.90
2023-05-10T14:25:50.875Z,10.35
2023-05-10T14:28:21.925Z,12.32
2023-05-10T14:30:54.660Z,9.15
2023-05-10T14:33:24.788Z,10.88
2023-05-10T14:35:56.049Z,9.38
2023-05-10T14:38:26.080Z,30.23
2023-05-10T14:40:56.032Z,9.57
2023-05-10T14:43:26.173Z,9.48
2023-05-10T14:45:58.703Z,10.13
2023-05-10T14:48:28.637Z,7.97
2023-05-10T14:50:58.667Z,9.70
2023-05-10T14:53:28.677Z,9.85
2023-05-10T14:55:58.627Z,10.88
2023-05-10T14:58:28.748Z,8.63
2023-05-10T15:01:01.310Z,9.02
2023-05-10T15:03:31.864Z,11.77
2023-05-10T15:06:02.116Z,13.00
2023-05-10T15:08:32.060Z,12.48
2023-05-10T15:11:02.162Z,14.70
2023-05-10T15:13:32.052Z,13.18
2023-05-10T15:16:04.925Z,11.75
2023-05-10T15:18:35.152Z,13.43
2023-05-10T15:21:10.273Z,14.90
2023-05-10T15:23:40.219Z,13.00
2023-05-10T15:26:10.163Z,15.88
2023-05-10T15:28:40.459Z,14.40
2023-05-10T15:31:13.193Z,12.43
2023-05-10T15:33:43.106Z,15.27
2023-05-10T15:36:13.137Z,15.38
2023-05-10T15:38:43.024Z,11.25
2023-05-10T15:41:13.002Z,11.20
2023-05-10T15:43:42.925Z,9.65
2023-05-10T15:46:15.490Z,9.57
2023-05-10T15:48:45.404Z,4.47
2023-05-10T15:51:15.846Z,3.45
2023-05-10T15:54:00.419Z,2.83
2023-05-10T15:56:36.978Z,2.08
2023-05-10T15:59:08.884Z,5.15
2023-05-10T16:01:41.651Z,5.55
2023-05-10T16:04:11.686Z,5.45
2023-05-10T16:06:42.892Z,3.15
2023-05-10T16:09:13.392Z,3.15
2023-05-10T16:11:43.331Z,6.43
2023-05-10T16:14:13.186Z,4.28
2023-05-10T16:16:46.309Z,7.65
2023-05-10T16:19:17.914Z,5.30
2023-05-10T16:21:48.077Z,5.32
2023-05-10T16:24:18.038Z,3.55
2023-05-10T16:26:48.411Z,4.07
2023-05-10T16:29:18.385Z,6.93
2023-05-10T16:31:50.867Z,3.60
2023-05-10T16:34:24.421Z,4.93
2023-05-10T16:36:54.345Z,4.90
2023-05-10T16:39:24.380Z,4.90
2023-05-10T16:41:56.628Z,7.50
2023-05-10T16:44:28.697Z,5.97
2023-05-10T16:47:01.178Z,5.90
2023-05-10T16:49:31.153Z,4.63
2023-05-10T16:52:01.668Z,7.95
2023-05-10T16:54:31.805Z,9.80
2023-05-10T16:57:02.346Z,6.20
2023-05-10T16:59:32.220Z,8.30
2023-05-10T17:02:04.754Z,6.22
2023-05-10T17:04:34.710Z,6.65
2023-05-10T17:07:09.625Z,6.28
2023-05-10T17:09:39.507Z,8.73
2023-05-10T17:12:09.414Z,7.38
2023-05-10T17:14:40.560Z,7.72
2023-05-10T17:17:13.002Z,6.47
2023-05-10T17:19:45.076Z,8.85
2023-05-10T17:22:15.606Z,8.10
2023-05-10T17:24:46.742Z,9.30
2023-05-10T17:27:16.777Z,7.85
2023-05-10T17:29:46.852Z,11.35
2023-05-10T17:32:19.269Z,6.60
2023-05-10T17:34:49.166Z,6.80
2023-05-10T17:37:19.532Z,7.63
2023-05-10T17:39:49.426Z,8.27
2023-05-10T17:42:21.939Z,8.82
2023-05-10T17:44:51.830Z,12.13
2023-05-10T17:47:24.456Z,10.55
2023-05-10T17:49:54.619Z,9.00
2023-05-10T17:52:24.364Z,7.78
2023-05-10T17:54:54.279Z,6.90
2023-05-10T17:57:24.874Z,5.05
2023-05-10T17:59:54.937Z,7.20
2023-05-10T18:02:27.551Z,5.88
2023-05-10T18:05:01.871Z,6.78
2023-05-10T18:07:32.251Z,5.15
2023-05-10T18:10:05.177Z,7.28
2023-05-10T18:12:38.137Z,5.85
2023-05-10T18:15:09.393Z,8.10
2023-05-10T18:17:48.083Z,7.40
2023-05-10T18:20:18.114Z,6.75
2023-05-10T18:22:47.944Z,6.47
2023-05-10T18:25:20.381Z,6.78
2023-05-10T18:27:50.575Z,11.18
2023-05-10T18:30:22.588Z,7.97
2023-05-10T18:32:55.310Z,6.57
2023-05-10T18:35:26.813Z,6.82
2023-05-10T18:37:56.746Z,5.50
2023-05-10T18:40:26.782Z,9.25
2023-05-10T18:42:58.478Z,6.07
2023-05-10T18:45:28.406Z,8.55
2023-05-10T18:48:04.017Z,6.47
2023-05-10T18:50:35.179Z,6.65
2023-05-10T18:53:09.641Z,6.85
2023-05-10T18:55:46.708Z,8.55
2023-05-10T18:58:19.093Z,8.18
2023-05-10T19:00:49.114Z,8.32
2023-05-10T19:03:21.870Z,7.72
2023-05-10T19:05:52.199Z,9.65
2023-05-10T19:08:22.264Z,8.85
2023-05-10T19:10:56.414Z,11.32
2023-05-10T19:13:29.184Z,7.75
2023-05-10T19:16:14.029Z,8.77
2023-05-10T19:18:51.559Z,11.30
2023-05-10T19:21:23.111Z,9.97
2023-05-10T19:23:57.272Z,10.20
2023-05-10T19:26:30.563Z,11.43
2023-05-10T19:29:06.010Z,19.13
2023-05-10T19:31:36.462Z,10.30
2023-05-10T19:34:10.560Z,11.15
2023-05-10T19:36:40.558Z,15.03
2023-05-10T19:39:10.685Z,13.90
2023-05-10T19:41:51.930Z,13.00
2023-05-10T19:44:23.038Z,10.93
2023-05-10T19:46:56.793Z,13.93
2023-05-10T19:49:30.460Z,12.33
2023-05-10T19:52:00.588Z,13.33
2023-05-10T19:54:30.478Z,12.20
2023-05-10T19:57:00.344Z,10.87
2023-05-10T19:59:30.212Z,12.93
2023-05-10T20:02:01.499Z,15.87
2023-05-10T20:04:41.334Z,19.20
2023-05-10T20:07:11.587Z,12.97
2023-05-10T20:09:41.538Z,12.77
2023-05-10T20:12:11.514Z,14.97
2023-05-10T20:14:44.572Z,17.10
2023-05-10T20:17:16.920Z,13.97
2023-05-10T20:19:50.436Z,13.40
2023-05-10T20:22:20.455Z,14.43
2023-05-10T20:24:50.415Z,13.60
2023-05-10T20:27:21.319Z,15.47
2023-05-10T20:29:51.115Z,15.80
2023-05-10T20:32:21.401Z,15.67
2023-05-10T20:34:53.894Z,17.00
2023-05-10T20:37:23.949Z,15.80
2023-05-10T20:39:53.823Z,14.07
2023-05-10T20:42:24.254Z,18.70
2023-05-10T20:44:54.173Z,18.37
2023-05-10T20:47:24.734Z,17.60
2023-05-10T20:49:57.266Z,19.80
2023-05-10T20:52:27.187Z,17.37
2023-05-10T20:54:57.058Z,18.07
2023-05-10T20:57:27.489Z,18.37
2023-05-10T20:59:57.814Z,20.07
2023-05-10T21:02:30.950Z,18.07
2023-05-10T21:05:03.879Z,16.00
2023-05-10T21:07:33.983Z,15.53
2023-05-10T21:10:03.951Z,18.67
2023-05-10T21:12:33.971Z,17.00
2023-05-10T21:15:04.006Z,16.23
2023-05-10T21:17:33.958Z,18.57
2023-05-10T21:20:06.703Z,14.27
2023-05-10T21:22:37.048Z,15.63
2023-05-10T21:25:07.540Z,14.93
2023-05-10T21:27:37.627Z,16.10
2023-05-10T21:30:08.936Z,15.47
2023-05-10T21:32:39.257Z,18.37
2023-05-10T21:35:12.482Z,18.47
2023-05-10T21:37:42.938Z,16.97
2023-05-10T21:40:14.650Z,16.87
2023-05-10T21:42:49.611Z,16.53
2023-05-10T21:45:19.711Z,17.67
2023-05-10T21:47:49.896Z,16.33
2023-05-10T21:50:23.114Z,21.10
2023-05-10T21:52:55.815Z,17.17
2023-05-10T21:55:26.145Z,16.60
2023-05-10T21:57:58.609Z,17.77
2023-05-10T22:00:28.615Z,19.77
2023-05-10T22:03:01.333Z,18.73
2023-05-10T22:05:34.007Z,26.17
2023-05-10T22:08:04.036Z,19.60
2023-05-10T22:10:35.333Z,20.90
2023-05-10T22:13:08.299Z,18.67
2023-05-10T22:15:38.342Z,20.50
2023-05-10T22:18:16.740Z,19.80
2023-05-10T22:20:50.397Z,21.70
2023-05-10T22:23:26.339Z,20.87
2023-05-10T22:25:56.158Z,20.80
2023-05-10T22:28:26.234Z,20.57
2023-05-10T22:30:56.368Z,22.10
2023-05-10T22:33:26.507Z,20.80
2023-05-10T22:36:00.402Z,21.03
2023-05-10T22:38:30.376Z,19.17
2023-05-10T22:41:05.916Z,24.90
2023-05-10T22:43:36.877Z,24.30
2023-05-10T22:46:07.210Z,26.73
2023-05-10T22:48:38.629Z,24.40
2023-05-10T22:51:11.211Z,22.03
2023-05-10T22:53:41.296Z,23.50
2023-05-10T22:56:15.817Z,21.03
2023-05-10T22:58:48.736Z,25.80
2023-05-10T23:01:19.402Z,22.27
2023-05-10T23:03:49.437Z,23.57
2023-05-10T23:06:21.958Z,24.03
2023-05-10T23:08:54.472Z,30.53
2023-05-10T23:11:27.140Z,24.77
2023-05-10T23:13:59.659Z,25.73
2023-05-10T23:16:29.822Z,28.10
2023-05-10T23:19:03.047Z,26.13
2023-05-10T23:21:39.077Z,25.90
2023-05-10T23:24:16.824Z,26.87
2023-05-10T23:26:47.557Z,26.63
2023-05-10T23:29:17.507Z,30.27
2023-05-10T23:31:48.988Z,29.10
2023-05-10T23:34:26.163Z,28.03
2023-05-10T23:37:04.004Z,27.03
2023-05-10T23:39:35.022Z,29.90
2023-05-10T23:42:06.249Z,28.83
2023-05-10T23:44:38.920Z,27.20
2023-05-10T23:47:19.044Z,28.63
2023-05-10T23:49:48.988Z,27.40
2023-05-10T23:52:23.019Z,28.97
2023-05-10T23:54:53.912Z,25.43
2023-05-10T23:57:28.080Z,28.97
